• Join FlightAware (Why Join?)
  • Login
  • US Flag 
10:28AM EDT


 

Airport Tracker/Info


-or-


 

Live Flight TrackerFlight Track Log ✈ XOJ552 ✈ 2013-Aug-24 ✈ KSNA - KLAS

Flight Track Log - Related Links

Times and Time Zones

All times are in EDT time to prevent confusion due to time zone crossing. See the XOJ552 flight status page for this flight to view local times or setup timezone preferences in your user account.

Time Position Orientation Groundspeed Altitude Reporting Facility
EDT Latitude Longitude Course Direction KTS MPH feet Rate Location/Type
03:49PM 33.6500 -117.8833 66° East 155 178 1,100  Level Southern California TRACON
03:50PM 33.6000 -117.9000 196° South 221 254 4,100 2,520 Climbing Southern California TRACON
03:51PM 33.5467 -117.8392 136° Southeast 264 304 6,800 2,580 Climbing Los Angeles Center
03:52PM 33.5589 -117.7392 82° East 299 344 10,200 3,120 Climbing Los Angeles Center
03:53PM 33.5719 -117.6069 83° East 328 377 13,200 2,640 Climbing Los Angeles Center
03:54PM 33.5828 -117.4850 84° East 363 418 15,700 2,460 Climbing Los Angeles Center
03:55PM 33.5599 -117.4847 66° East  Level FlightAware Approximate
03:55PM 33.5886 -117.3561 87° East 386 444 18,300  Level Los Angeles Center
03:57PM 33.5936 -117.2214 87° East 402 463 20,800 2,340 Climbing Los Angeles Center
03:58PM 33.5994 -117.0842 87° East 411 473 23,100 1,020 Climbing Los Angeles Center
03:59PM 33.6036 -116.9342 88° East 447 514 23,000 -60 Descending Los Angeles Center
04:00PM 33.6217 -116.7783 82° East 484 557 23,000 -60 Level Los Angeles Center
04:01PM 33.7267 -116.6294 50° Northeast 492 566 22,900  Descending Los Angeles Center
04:02PM 33.8317 -116.5225 40° Northeast 493 567 23,000  Climbing Los Angeles Center
04:03PM 33.9350 -116.4181 40° Northeast 490 564 23,000  Level Los Angeles Center
04:04PM 34.0386 -116.3125 40° Northeast 488 562 23,000  Level Los Angeles Center
04:05PM 34.1400 -116.2100 40° Northeast 482 555 23,000  Level Los Angeles Center
04:06PM 34.2400 -116.1031 41° Northeast 482 555 23,000  Level Los Angeles Center
04:07PM 34.3303 -115.9861 47° Northeast 489 563 23,000  Level Los Angeles Center
04:08PM 34.4075 -115.8206 60° Northeast 476 548 23,000  Level Los Angeles Center
04:09PM 34.4717 -115.6825 61° Northeast 474 545 23,000  Level Los Angeles Center
04:10PM 34.5422 -115.5294 61° Northeast 477 549 23,000  Level Los Angeles Center
04:11PM 34.6056 -115.3914 61° Northeast 472 543 23,000  Level Los Angeles Center
04:12PM 34.6700 -115.2522 61° Northeast 474 545 23,000  Level Los Angeles Center
04:13PM 34.7328 -115.1144 61° Northeast 470 541 23,000  Level Los Angeles Center
04:14PM 34.7953 -114.9764 61° Northeast 468 539 23,000  Level Los Angeles Center
04:15PM 34.8581 -114.8369 61° Northeast 472 543 23,000 -780 Level Los Angeles Center
04:16PM 34.9325 -114.6722 61° Northeast 465 535 21,400 -1,500 Descending Los Angeles Center
04:17PM 34.9906 -114.5436 61° Northeast 440 506 19,900 -1,500 Descending Los Angeles Center
04:18PM 35.0547 -114.4250 57° Northeast 427 491 18,300 -1,500 Descending Los Angeles Center
04:19PM 35.1625 -114.3931 14° North 416 479 16,900 -1,200 Descending Los Angeles Center
04:20PM 35.2744 -114.3900 North 404 465 15,900 -1,020 Descending Los Angeles Center
04:21PM 35.3850 -114.3872 North 399 459 14,900 -1,140 Descending Los Angeles Center
04:22PM 35.4981 -114.3872 360° North 353 406 13,600 -1,140 Descending Los Angeles Center
04:23PM 35.5508 -114.3878 360° North 345 397 13,100 -1,080 Descending Los Angeles Center
04:24PM 35.6356 -114.3883 360° North 337 388 12,100 -780 Descending Los Angeles Center
04:24PM 35.6842 -114.3836 North 335 386 12,000 -240 Descending Los Angeles Center
04:26PM 35.8042 -114.4164 348° North 326 375 11,700 -540 Descending Los Angeles Center
04:26PM 35.8544 -114.4369 342° North 322 371 11,000 -1,020 Descending Los Angeles Center
04:27PM 35.9381 -114.4711 342° North 318 366 10,000 -540 Descending Los Angeles Center
04:28PM 36.0389 -114.5106 342° North 317 365 10,000 -1,020 Level Los Angeles Center
04:30PM 36.1231 -114.5458 341° North 318 366 8,000 -1,320 Descending Los Angeles Center
04:31PM 36.1428 -114.6639 282° West 290 334 7,200 -480 Descending Los Angeles Center
04:32PM 36.1383 -114.7614 267° West 284 327 7,000 -900 Descending Los Angeles Center
04:33PM 36.1364 -114.8606 269° West 284 327 5,400 -840 Descending Los Angeles Center
04:34PM 36.1317 -114.9542 266° West 285 328 5,200 -420 Descending Los Angeles Center
04:35PM 36.1350 -115.0317 273° West 243 280 4,600 -900 Descending Los Angeles Center
04:36PM 36.1364 -115.0978 272° West 187 215 3,700 -960 Descending Los Angeles Center
04:37PM 36.1189 -115.1461 246° West 150 173 2,700 -1,020 Descending Los Angeles Center
04:39PM 36.0801 -115.1523 270° West  Level Estimated
04:46PM 36.0801 -115.1523 270° West  Level Estimated